sensor_id;sensor_type;location;lat;lon;timestamp;P1;durP1;ratioP1;P2;durP2;ratioP2
72478;SDS011;60658;52.246;5.258;2022-07-18T00:18:26;10.38;;;6.32;;
72478;SDS011;60658;52.246;5.258;2022-07-18T00:34:05;9.50;;;5.65;;
72478;SDS011;60658;52.246;5.258;2022-07-18T00:39:28;11.00;;;5.72;;
72478;SDS011;60658;52.246;5.258;2022-07-18T00:40:34;9.80;;;6.15;;
72478;SDS011;60658;52.246;5.258;2022-07-18T00:42:22;8.82;;;5.95;;
72478;SDS011;60658;52.246;5.258;2022-07-18T00:43:34;8.55;;;5.40;;
72478;SDS011;60658;52.246;5.258;2022-07-18T00:47:07;8.23;;;4.60;;
72478;SDS011;60658;52.246;5.258;2022-07-18T00:53:04;7.82;;;4.95;;
72478;SDS011;60658;52.246;5.258;2022-07-18T00:54:18;7.28;;;4.60;;
72478;SDS011;60658;52.246;5.258;2022-07-18T00:59:34;6.57;;;4.43;;
72478;SDS011;60658;52.246;5.258;2022-07-18T01:02:05;8.45;;;5.68;;
72478;SDS011;60658;52.246;5.258;2022-07-18T01:05:37;9.95;;;5.50;;
72478;SDS011;60658;52.246;5.258;2022-07-18T01:07:37;7.95;;;5.00;;
72478;SDS011;60658;52.246;5.258;2022-07-18T01:10:02;8.95;;;5.22;;
72478;SDS011;60658;52.246;5.258;2022-07-18T01:11:38;9.27;;;5.32;;
72478;SDS011;60658;52.246;5.258;2022-07-18T01:13:02;9.10;;;5.68;;
72478;SDS011;60658;52.246;5.258;2022-07-18T01:14:32;9.07;;;4.85;;
72478;SDS011;60658;52.246;5.258;2022-07-18T01:16:02;8.50;;;5.25;;
72478;SDS011;60658;52.246;5.258;2022-07-18T01:17:26;11.93;;;6.22;;
72478;SDS011;60658;52.246;5.258;2022-07-18T01:19:48;8.73;;;6.47;;
72478;SDS011;60658;52.246;5.258;2022-07-18T01:20:56;12.60;;;6.80;;
72478;SDS011;60658;52.246;5.258;2022-07-18T01:23:02;9.15;;;5.90;;
72478;SDS011;60658;52.246;5.258;2022-07-18T01:23:34;9.23;;;5.93;;
72478;SDS011;60658;52.246;5.258;2022-07-18T01:58:56;7.57;;;4.95;;
72478;SDS011;60658;52.246;5.258;2022-07-18T02:02:02;8.68;;;5.80;;
72478;SDS011;60658;52.246;5.258;2022-07-18T02:03:02;9.30;;;4.78;;
72478;SDS011;60658;52.246;5.258;2022-07-18T02:04:10;7.38;;;4.63;;
72478;SDS011;60658;52.246;5.258;2022-07-18T02:05:23;7.90;;;5.43;;
72478;SDS011;60658;52.246;5.258;2022-07-18T02:08:07;10.65;;;5.95;;
72478;SDS011;60658;52.246;5.258;2022-07-18T02:09:08;11.55;;;6.20;;
72478;SDS011;60658;52.246;5.258;2022-07-18T02:11:37;10.35;;;6.70;;
72478;SDS011;60658;52.246;5.258;2022-07-18T02:12:38;10.88;;;6.88;;
72478;SDS011;60658;52.246;5.258;2022-07-18T02:13:50;10.20;;;6.60;;
72478;SDS011;60658;52.246;5.258;2022-07-18T03:31:04;13.50;;;8.35;;
72478;SDS011;60658;52.246;5.258;2022-07-18T03:32:29;13.23;;;7.45;;
72478;SDS011;60658;52.246;5.258;2022-07-18T03:33:42;11.77;;;7.63;;
72478;SDS011;60658;52.246;5.258;2022-07-18T03:35:10;10.55;;;6.63;;
72478;SDS011;60658;52.246;5.258;2022-07-18T03:36:40;13.43;;;7.15;;
72478;SDS011;60658;52.246;5.258;2022-07-18T03:39:43;10.48;;;6.63;;
72478;SDS011;60658;52.246;5.258;2022-07-18T03:40:44;11.70;;;6.47;;
72478;SDS011;60658;52.246;5.258;2022-07-18T03:59:12;8.45;;;5.60;;
72478;SDS011;60658;52.246;5.258;2022-07-18T04:03:27;9.75;;;5.90;;
72478;SDS011;60658;52.246;5.258;2022-07-18T04:04:28;10.93;;;6.22;;
72478;SDS011;60658;52.246;5.258;2022-07-18T04:15:42;12.10;;;6.97;;
72478;SDS011;60658;52.246;5.258;2022-07-18T04:28:30;15.20;;;7.07;;
72478;SDS011;60658;52.246;5.258;2022-07-18T04:35:16;14.15;;;7.85;;
72478;SDS011;60658;52.246;5.258;2022-07-18T04:37:45;13.90;;;7.80;;
72478;SDS011;60658;52.246;5.258;2022-07-18T04:40:42;14.40;;;8.18;;
72478;SDS011;60658;52.246;5.258;2022-07-18T04:45:34;12.75;;;7.88;;
72478;SDS011;60658;52.246;5.258;2022-07-18T10:27:53;6.30;;;1.75;;
72478;SDS011;60658;52.246;5.258;2022-07-18T10:35:02;4.32;;;2.08;;
72478;SDS011;60658;52.246;5.258;2022-07-18T10:37:07;6.50;;;1.70;;
72478;SDS011;60658;52.246;5.258;2022-07-18T11:12:30;3.67;;;1.95;;
72478;SDS011;60658;52.246;5.258;2022-07-18T11:13:32;6.85;;;2.13;;
72478;SDS011;60658;52.246;5.258;2022-07-18T11:15:56;3.95;;;1.80;;
72478;SDS011;60658;52.246;5.258;2022-07-18T11:17:03;4.05;;;1.67;;
72478;SDS011;60658;52.246;5.258;2022-07-18T11:18:04;3.25;;;1.92;;
72478;SDS011;60658;52.246;5.258;2022-07-18T11:19:17;5.43;;;2.08;;
72478;SDS011;60658;52.246;5.258;2022-07-18T11:20:22;5.47;;;2.00;;
72478;SDS011;60658;52.246;5.258;2022-07-18T11:21:25;3.03;;;1.80;;
72478;SDS011;60658;52.246;5.258;2022-07-18T11:22:26;3.88;;;1.80;;
72478;SDS011;60658;52.246;5.258;2022-07-18T11:23:27;4.68;;;2.00;;
72478;SDS011;60658;52.246;5.258;2022-07-18T11:24:29;5.22;;;1.80;;
72478;SDS011;60658;52.246;5.258;2022-07-18T11:25:30;2.80;;;1.80;;
72478;SDS011;60658;52.246;5.258;2022-07-18T11:26:31;5.00;;;1.73;;
72478;SDS011;60658;52.246;5.258;2022-07-18T11:27:33;3.63;;;2.00;;
72478;SDS011;60658;52.246;5.258;2022-07-18T11:28:39;4.32;;;1.75;;
72478;SDS011;60658;52.246;5.258;2022-07-18T11:29:40;3.05;;;1.60;;
72478;SDS011;60658;52.246;5.258;2022-07-18T11:30:41;5.75;;;2.00;;
72478;SDS011;60658;52.246;5.258;2022-07-18T11:31:43;3.30;;;1.80;;
72478;SDS011;60658;52.246;5.258;2022-07-18T11:32:43;4.10;;;1.77;;
72478;SDS011;60658;52.246;5.258;2022-07-18T11:33:45;3.47;;;1.80;;
72478;SDS011;60658;52.246;5.258;2022-07-18T11:34:49;4.07;;;1.70;;
72478;SDS011;60658;52.246;5.258;2022-07-18T11:35:49;2.92;;;1.83;;
72478;SDS011;60658;52.246;5.258;2022-07-18T11:36:50;5.57;;;2.00;;
72478;SDS011;60658;52.246;5.258;2022-07-18T11:37:55;3.97;;;1.70;;
72478;SDS011;60658;52.246;5.258;2022-07-18T11:39:00;2.47;;;1.65;;
72478;SDS011;60658;52.246;5.258;2022-07-18T11:40:06;2.78;;;1.70;;
72478;SDS011;60658;52.246;5.258;2022-07-18T11:41:07;4.13;;;1.80;;
72478;SDS011;60658;52.246;5.258;2022-07-18T11:42:07;5.93;;;1.90;;
72478;SDS011;60658;52.246;5.258;2022-07-18T11:43:11;3.10;;;2.13;;
72478;SDS011;60658;52.246;5.258;2022-07-18T11:44:15;4.30;;;1.90;;
72478;SDS011;60658;52.246;5.258;2022-07-18T11:45:16;3.50;;;1.80;;
72478;SDS011;60658;52.246;5.258;2022-07-18T11:46:17;3.85;;;2.00;;
72478;SDS011;60658;52.246;5.258;2022-07-18T11:47:18;2.63;;;1.92;;
72478;SDS011;60658;52.246;5.258;2022-07-18T11:48:22;4.18;;;1.88;;
72478;SDS011;60658;52.246;5.258;2022-07-18T11:49:22;2.63;;;1.80;;
72478;SDS011;60658;52.246;5.258;2022-07-18T11:50:26;5.07;;;2.00;;
72478;SDS011;60658;52.246;5.258;2022-07-18T11:51:34;3.78;;;1.80;;
72478;SDS011;60658;52.246;5.258;2022-07-18T11:52:35;3.17;;;1.60;;
72478;SDS011;60658;52.246;5.258;2022-07-18T11:53:36;4.68;;;2.03;;
72478;SDS011;60658;52.246;5.258;2022-07-18T11:54:36;4.15;;;1.92;;
72478;SDS011;60658;52.246;5.258;2022-07-18T11:55:37;4.95;;;1.90;;
72478;SDS011;60658;52.246;5.258;2022-07-18T11:56:44;6.13;;;2.03;;
72478;SDS011;60658;52.246;5.258;2022-07-18T11:57:45;13.90;;;2.20;;
72478;SDS011;60658;52.246;5.258;2022-07-18T11:58:49;7.90;;;1.90;;
72478;SDS011;60658;52.246;5.258;2022-07-18T11:59:50;4.45;;;2.13;;
72478;SDS011;60658;52.246;5.258;2022-07-18T12:00:57;3.35;;;1.90;;
72478;SDS011;60658;52.246;5.258;2022-07-18T12:01:58;4.22;;;1.83;;
72478;SDS011;60658;52.246;5.258;2022-07-18T12:03:06;3.20;;;1.83;;
72478;SDS011;60658;52.246;5.258;2022-07-18T12:04:07;5.85;;;2.03;;
72478;SDS011;60658;52.246;5.258;2022-07-18T12:05:14;3.50;;;2.00;;
72478;SDS011;60658;52.246;5.258;2022-07-18T12:06:17;4.22;;;1.73;;
72478;SDS011;60658;52.246;5.258;2022-07-18T12:07:20;3.90;;;2.00;;
72478;SDS011;60658;52.246;5.258;2022-07-18T12:08:24;3.20;;;1.77;;
72478;SDS011;60658;52.246;5.258;2022-07-18T12:09:25;3.28;;;2.10;;
72478;SDS011;60658;52.246;5.258;2022-07-18T12:10:29;2.78;;;1.92;;
72478;SDS011;60658;52.246;5.258;2022-07-18T12:11:39;2.95;;;1.88;;
72478;SDS011;60658;52.246;5.258;2022-07-18T12:12:47;5.25;;;1.75;;
72478;SDS011;60658;52.246;5.258;2022-07-18T12:13:58;2.35;;;1.50;;
72478;SDS011;60658;52.246;5.258;2022-07-18T12:15:08;4.47;;;1.58;;
72478;SDS011;60658;52.246;5.258;2022-07-18T12:16:20;6.07;;;1.60;;
72478;SDS011;60658;52.246;5.258;2022-07-18T12:17:26;4.75;;;1.70;;
72478;SDS011;60658;52.246;5.258;2022-07-18T12:18:36;2.83;;;1.40;;
72478;SDS011;60658;52.246;5.258;2022-07-18T12:20:08;3.10;;;1.60;;
72478;SDS011;60658;52.246;5.258;2022-07-18T12:21:09;3.40;;;1.65;;
72478;SDS011;60658;52.246;5.258;2022-07-18T12:22:10;4.45;;;1.50;;
72478;SDS011;60658;52.246;5.258;2022-07-18T12:23:11;3.83;;;1.38;;
72478;SDS011;60658;52.246;5.258;2022-07-18T12:24:19;3.97;;;1.60;;
72478;SDS011;60658;52.246;5.258;2022-07-18T12:28:36;3.30;;;1.85;;
72478;SDS011;60658;52.246;5.258;2022-07-18T12:32:28;5.20;;;2.00;;
72478;SDS011;60658;52.246;5.258;2022-07-18T12:33:30;4.53;;;1.90;;
72478;SDS011;60658;52.246;5.258;2022-07-18T12:34:34;4.45;;;2.00;;
72478;SDS011;60658;52.246;5.258;2022-07-18T12:35:37;4.80;;;2.20;;
72478;SDS011;60658;52.246;5.258;2022-07-18T12:36:50;3.42;;;1.77;;
72478;SDS011;60658;52.246;5.258;2022-07-18T12:37:55;3.90;;;2.00;;
72478;SDS011;60658;52.246;5.258;2022-07-18T12:39:00;4.07;;;1.52;;
72478;SDS011;60658;52.246;5.258;2022-07-18T12:40:04;3.72;;;1.60;;
72478;SDS011;60658;52.246;5.258;2022-07-18T12:41:05;2.70;;;1.75;;
72478;SDS011;60658;52.246;5.258;2022-07-18T12:42:06;2.22;;;1.60;;
72478;SDS011;60658;52.246;5.258;2022-07-18T12:43:07;3.05;;;1.67;;
72478;SDS011;60658;52.246;5.258;2022-07-18T12:44:15;3.58;;;1.73;;
72478;SDS011;60658;52.246;5.258;2022-07-18T12:45:19;3.53;;;1.45;;
72478;SDS011;60658;52.246;5.258;2022-07-18T12:46:21;3.38;;;1.70;;
72478;SDS011;60658;52.246;5.258;2022-07-18T12:47:22;7.22;;;2.20;;
72478;SDS011;60658;52.246;5.258;2022-07-18T12:48:28;4.00;;;1.63;;
72478;SDS011;60658;52.246;5.258;2022-07-18T12:49:29;4.63;;;1.73;;
72478;SDS011;60658;52.246;5.258;2022-07-18T12:50:30;5.13;;;2.00;;
72478;SDS011;60658;52.246;5.258;2022-07-18T12:51:31;4.40;;;1.90;;
72478;SDS011;60658;52.246;5.258;2022-07-18T12:52:31;5.53;;;1.60;;
72478;SDS011;60658;52.246;5.258;2022-07-18T12:53:33;6.30;;;1.63;;
72478;SDS011;60658;52.246;5.258;2022-07-18T12:54:34;3.45;;;1.90;;
72478;SDS011;60658;52.246;5.258;2022-07-18T12:55:34;3.60;;;1.73;;
72478;SDS011;60658;52.246;5.258;2022-07-18T12:56:35;5.82;;;1.80;;
72478;SDS011;60658;52.246;5.258;2022-07-18T12:57:36;11.63;;;2.05;;
72478;SDS011;60658;52.246;5.258;2022-07-18T12:58:37;7.03;;;1.88;;
72478;SDS011;60658;52.246;5.258;2022-07-18T12:59:43;3.80;;;1.83;;
72478;SDS011;60658;52.246;5.258;2022-07-18T13:00:45;3.63;;;1.65;;
72478;SDS011;60658;52.246;5.258;2022-07-18T13:01:46;3.70;;;1.63;;
72478;SDS011;60658;52.246;5.258;2022-07-18T13:02:47;3.53;;;1.80;;
72478;SDS011;60658;52.246;5.258;2022-07-18T13:03:58;3.00;;;1.77;;
72478;SDS011;60658;52.246;5.258;2022-07-18T13:05:02;3.35;;;1.80;;
72478;SDS011;60658;52.246;5.258;2022-07-18T13:07:03;2.90;;;1.63;;
72478;SDS011;60658;52.246;5.258;2022-07-18T13:08:06;4.07;;;1.73;;
72478;SDS011;60658;52.246;5.258;2022-07-18T13:09:10;6.63;;;2.10;;
72478;SDS011;60658;52.246;5.258;2022-07-18T13:10:11;5.03;;;2.22;;
72478;SDS011;60658;52.246;5.258;2022-07-18T13:11:22;3.92;;;1.80;;
72478;SDS011;60658;52.246;5.258;2022-07-18T13:12:25;4.90;;;1.88;;
72478;SDS011;60658;52.246;5.258;2022-07-18T13:13:28;4.78;;;1.95;;
72478;SDS011;60658;52.246;5.258;2022-07-18T13:14:29;3.55;;;1.80;;
72478;SDS011;60658;52.246;5.258;2022-07-18T13:15:33;3.72;;;1.90;;
72478;SDS011;60658;52.246;5.258;2022-07-18T13:16:34;5.30;;;1.95;;
72478;SDS011;60658;52.246;5.258;2022-07-18T13:18:54;3.50;;;1.83;;
72478;SDS011;60658;52.246;5.258;2022-07-18T13:19:55;3.10;;;1.70;;
72478;SDS011;60658;52.246;5.258;2022-07-18T13:20:58;3.83;;;1.70;;
72478;SDS011;60658;52.246;5.258;2022-07-18T13:21:59;6.45;;;1.70;;
72478;SDS011;60658;52.246;5.258;2022-07-18T13:23:05;6.15;;;1.95;;
72478;SDS011;60658;52.246;5.258;2022-07-18T13:24:06;4.00;;;1.50;;
72478;SDS011;60658;52.246;5.258;2022-07-18T13:25:08;5.43;;;1.80;;
72478;SDS011;60658;52.246;5.258;2022-07-18T13:26:09;3.78;;;2.00;;
72478;SDS011;60658;52.246;5.258;2022-07-18T13:27:10;4.43;;;1.88;;
72478;SDS011;60658;52.246;5.258;2022-07-18T13:28:11;3.58;;;1.67;;
72478;SDS011;60658;52.246;5.258;2022-07-18T13:29:12;3.65;;;1.77;;
72478;SDS011;60658;52.246;5.258;2022-07-18T13:30:14;3.95;;;1.80;;
72478;SDS011;60658;52.246;5.258;2022-07-18T13:31:15;4.25;;;1.90;;
72478;SDS011;60658;52.246;5.258;2022-07-18T13:32:16;5.15;;;2.40;;
72478;SDS011;60658;52.246;5.258;2022-07-18T13:33:16;3.83;;;2.03;;
72478;SDS011;60658;52.246;5.258;2022-07-18T13:34:19;4.68;;;2.15;;
72478;SDS011;60658;52.246;5.258;2022-07-18T13:35:20;3.50;;;1.85;;
72478;SDS011;60658;52.246;5.258;2022-07-18T13:36:21;6.85;;;2.38;;
72478;SDS011;60658;52.246;5.258;2022-07-18T13:37:21;5.82;;;2.00;;
72478;SDS011;60658;52.246;5.258;2022-07-18T13:38:22;3.30;;;1.90;;
72478;SDS011;60658;52.246;5.258;2022-07-18T13:39:23;8.63;;;2.30;;
72478;SDS011;60658;52.246;5.258;2022-07-18T13:40:24;5.68;;;1.90;;
72478;SDS011;60658;52.246;5.258;2022-07-18T13:42:01;5.00;;;2.20;;
72478;SDS011;60658;52.246;5.258;2022-07-18T13:43:01;3.58;;;2.00;;
72478;SDS011;60658;52.246;5.258;2022-07-18T13:44:02;3.70;;;2.08;;
72478;SDS011;60658;52.246;5.258;2022-07-18T13:45:04;4.25;;;1.80;;
72478;SDS011;60658;52.246;5.258;2022-07-18T13:46:11;4.65;;;1.83;;
72478;SDS011;60658;52.246;5.258;2022-07-18T13:47:12;3.63;;;1.90;;
72478;SDS011;60658;52.246;5.258;2022-07-18T13:48:12;4.63;;;1.83;;
72478;SDS011;60658;52.246;5.258;2022-07-18T13:49:13;3.17;;;1.90;;
72478;SDS011;60658;52.246;5.258;2022-07-18T13:50:21;3.88;;;1.90;;
72478;SDS011;60658;52.246;5.258;2022-07-18T13:51:22;3.97;;;2.08;;
72478;SDS011;60658;52.246;5.258;2022-07-18T13:52:26;4.22;;;2.08;;
72478;SDS011;60658;52.246;5.258;2022-07-18T13:53:27;4.68;;;2.00;;
72478;SDS011;60658;52.246;5.258;2022-07-18T13:55:46;3.75;;;2.22;;
72478;SDS011;60658;52.246;5.258;2022-07-18T13:56:48;3.70;;;2.10;;
72478;SDS011;60658;52.246;5.258;2022-07-18T13:57:52;4.55;;;2.05;;
72478;SDS011;60658;52.246;5.258;2022-07-18T13:58:53;6.13;;;1.90;;
72478;SDS011;60658;52.246;5.258;2022-07-18T13:59:53;4.60;;;1.80;;
72478;SDS011;60658;52.246;5.258;2022-07-18T14:00:57;4.72;;;2.10;;
72478;SDS011;60658;52.246;5.258;2022-07-18T14:01:57;2.85;;;2.00;;
72478;SDS011;60658;52.246;5.258;2022-07-18T14:02:58;4.07;;;2.00;;
72478;SDS011;60658;52.246;5.258;2022-07-18T14:04:02;3.08;;;1.90;;
72478;SDS011;60658;52.246;5.258;2022-07-18T14:05:05;4.97;;;2.03;;
72478;SDS011;60658;52.246;5.258;2022-07-18T14:06:08;2.33;;;1.65;;
72478;SDS011;60658;52.246;5.258;2022-07-18T14:07:09;4.43;;;2.10;;
72478;SDS011;60658;52.246;5.258;2022-07-18T14:08:15;4.15;;;1.90;;
72478;SDS011;60658;52.246;5.258;2022-07-18T14:09:19;7.03;;;2.17;;
72478;SDS011;60658;52.246;5.258;2022-07-18T14:10:23;3.45;;;1.90;;
72478;SDS011;60658;52.246;5.258;2022-07-18T14:11:32;2.95;;;1.63;;
72478;SDS011;60658;52.246;5.258;2022-07-18T14:12:48;4.55;;;2.17;;
72478;SDS011;60658;52.246;5.258;2022-07-18T14:14:02;7.63;;;2.38;;
72478;SDS011;60658;52.246;5.258;2022-07-18T14:16:42;3.42;;;1.70;;
72478;SDS011;60658;52.246;5.258;2022-07-18T14:17:46;3.50;;;1.50;;
72478;SDS011;60658;52.246;5.258;2022-07-18T14:19:05;3.05;;;1.75;;
72478;SDS011;60658;52.246;5.258;2022-07-18T14:20:08;5.32;;;2.00;;
72478;SDS011;60658;52.246;5.258;2022-07-18T14:22:41;4.05;;;2.05;;
72478;SDS011;60658;52.246;5.258;2022-07-18T14:23:55;3.22;;;1.50;;
72478;SDS011;60658;52.246;5.258;2022-07-18T14:25:04;4.63;;;1.80;;
72478;SDS011;60658;52.246;5.258;2022-07-18T14:26:08;4.47;;;2.10;;
72478;SDS011;60658;52.246;5.258;2022-07-18T14:27:11;3.90;;;1.70;;
72478;SDS011;60658;52.246;5.258;2022-07-18T14:29:48;4.78;;;1.67;;
72478;SDS011;60658;52.246;5.258;2022-07-18T14:30:52;2.20;;;1.33;;
72478;SDS011;60658;52.246;5.258;2022-07-18T14:33:09;3.35;;;2.00;;
72478;SDS011;60658;52.246;5.258;2022-07-18T14:34:18;6.15;;;1.90;;
72478;SDS011;60658;52.246;5.258;2022-07-18T14:35:22;4.80;;;2.20;;
72478;SDS011;60658;52.246;5.258;2022-07-18T14:38:09;4.65;;;2.13;;
72478;SDS011;60658;52.246;5.258;2022-07-18T14:39:10;5.30;;;1.70;;
72478;SDS011;60658;52.246;5.258;2022-07-18T14:40:11;11.48;;;1.90;;
72478;SDS011;60658;52.246;5.258;2022-07-18T14:41:16;3.78;;;1.77;;
72478;SDS011;60658;52.246;5.258;2022-07-18T14:42:19;4.35;;;1.70;;
72478;SDS011;60658;52.246;5.258;2022-07-18T14:43:20;3.75;;;1.73;;
72478;SDS011;60658;52.246;5.258;2022-07-18T14:44:20;7.03;;;1.90;;
72478;SDS011;60658;52.246;5.258;2022-07-18T14:45:42;7.25;;;1.98;;
72478;SDS011;60658;52.246;5.258;2022-07-18T14:46:46;3.17;;;1.50;;
72478;SDS011;60658;52.246;5.258;2022-07-18T14:47:50;4.63;;;1.90;;
72478;SDS011;60658;52.246;5.258;2022-07-18T14:48:53;5.90;;;1.75;;
72478;SDS011;60658;52.246;5.258;2022-07-18T14:51:13;6.63;;;1.80;;
72478;SDS011;60658;52.246;5.258;2022-07-18T14:52:19;4.15;;;1.55;;
72478;SDS011;60658;52.246;5.258;2022-07-18T14:55:24;4.63;;;2.20;;
72478;SDS011;60658;52.246;5.258;2022-07-18T15:01:51;5.28;;;1.75;;
72478;SDS011;60658;52.246;5.258;2022-07-18T15:02:57;3.80;;;1.60;;
72478;SDS011;60658;52.246;5.258;2022-07-18T15:04:12;4.43;;;1.65;;
72478;SDS011;60658;52.246;5.258;2022-07-18T15:05:19;7.28;;;1.90;;
72478;SDS011;60658;52.246;5.258;2022-07-18T15:06:31;5.75;;;1.70;;
72478;SDS011;60658;52.246;5.258;2022-07-18T15:07:38;8.32;;;2.00;;
72478;SDS011;60658;52.246;5.258;2022-07-18T15:08:41;3.83;;;1.60;;
72478;SDS011;60658;52.246;5.258;2022-07-18T15:10:21;3.78;;;1.70;;
72478;SDS011;60658;52.246;5.258;2022-07-18T15:11:20;5.10;;;1.50;;
72478;SDS011;60658;52.246;5.258;2022-07-18T15:12:21;2.78;;;1.83;;
72478;SDS011;60658;52.246;5.258;2022-07-18T15:13:39;4.47;;;1.90;;
72478;SDS011;60658;52.246;5.258;2022-07-18T15:15:06;2.85;;;1.88;;
72478;SDS011;60658;52.246;5.258;2022-07-18T15:16:09;6.63;;;2.35;;
72478;SDS011;60658;52.246;5.258;2022-07-18T15:17:13;3.67;;;1.90;;
72478;SDS011;60658;52.246;5.258;2022-07-18T15:18:20;3.65;;;1.83;;
72478;SDS011;60658;52.246;5.258;2022-07-18T15:19:28;3.65;;;1.90;;
72478;SDS011;60658;52.246;5.258;2022-07-18T15:20:32;5.10;;;1.90;;
72478;SDS011;60658;52.246;5.258;2022-07-18T15:22:33;4.03;;;1.70;;
72478;SDS011;60658;52.246;5.258;2022-07-18T15:23:34;3.50;;;1.80;;
72478;SDS011;60658;52.246;5.258;2022-07-18T15:24:38;3.88;;;1.63;;
72478;SDS011;60658;52.246;5.258;2022-07-18T15:25:48;6.70;;;2.13;;
72478;SDS011;60658;52.246;5.258;2022-07-18T15:26:52;3.33;;;1.90;;
72478;SDS011;60658;52.246;5.258;2022-07-18T15:27:59;5.65;;;1.60;;
72478;SDS011;60658;52.246;5.258;2022-07-18T15:29:03;3.60;;;1.60;;
72478;SDS011;60658;52.246;5.258;2022-07-18T15:30:04;3.65;;;2.08;;
72478;SDS011;60658;52.246;5.258;2022-07-18T15:33:19;3.42;;;1.58;;
72478;SDS011;60658;52.246;5.258;2022-07-18T15:34:09;3.40;;;1.85;;
72478;SDS011;60658;52.246;5.258;2022-07-18T15:35:28;3.42;;;1.80;;
72478;SDS011;60658;52.246;5.258;2022-07-18T15:36:58;7.90;;;1.80;;
72478;SDS011;60658;52.246;5.258;2022-07-18T15:38:14;8.00;;;1.92;;
72478;SDS011;60658;52.246;5.258;2022-07-18T15:43:01;5.25;;;1.90;;
72478;SDS011;60658;52.246;5.258;2022-07-18T15:48:49;2.80;;;1.73;;
72478;SDS011;60658;52.246;5.258;2022-07-18T15:49:57;3.22;;;2.00;;
72478;SDS011;60658;52.246;5.258;2022-07-18T15:51:00;5.50;;;1.95;;
72478;SDS011;60658;52.246;5.258;2022-07-18T15:52:07;3.58;;;1.70;;
72478;SDS011;60658;52.246;5.258;2022-07-18T15:54:44;4.60;;;1.90;;
72478;SDS011;60658;52.246;5.258;2022-07-18T16:09:52;4.18;;;2.05;;
72478;SDS011;60658;52.246;5.258;2022-07-18T16:10:59;3.70;;;1.95;;
72478;SDS011;60658;52.246;5.258;2022-07-18T16:12:27;6.25;;;1.95;;
72478;SDS011;60658;52.246;5.258;2022-07-18T16:13:33;3.63;;;1.60;;
72478;SDS011;60658;52.246;5.258;2022-07-18T16:14:38;3.65;;;1.75;;
72478;SDS011;60658;52.246;5.258;2022-07-18T16:17:38;3.97;;;1.75;;
72478;SDS011;60658;52.246;5.258;2022-07-18T16:18:45;3.97;;;2.00;;
72478;SDS011;60658;52.246;5.258;2022-07-18T16:19:45;4.57;;;1.77;;
72478;SDS011;60658;52.246;5.258;2022-07-18T16:21:00;3.92;;;1.77;;
72478;SDS011;60658;52.246;5.258;2022-07-18T16:22:15;4.40;;;1.60;;
72478;SDS011;60658;52.246;5.258;2022-07-18T16:23:16;3.80;;;1.60;;
72478;SDS011;60658;52.246;5.258;2022-07-18T16:27:55;2.67;;;1.50;;
72478;SDS011;60658;52.246;5.258;2022-07-18T16:29:02;2.40;;;1.70;;
72478;SDS011;60658;52.246;5.258;2022-07-18T16:30:25;3.30;;;1.73;;
72478;SDS011;60658;52.246;5.258;2022-07-18T16:34:19;2.38;;;1.48;;
72478;SDS011;60658;52.246;5.258;2022-07-18T16:35:25;2.83;;;1.50;;
72478;SDS011;60658;52.246;5.258;2022-07-18T16:36:41;4.38;;;1.75;;
72478;SDS011;60658;52.246;5.258;2022-07-18T16:37:57;3.53;;;1.50;;
72478;SDS011;60658;52.246;5.258;2022-07-18T16:39:09;3.65;;;1.95;;
72478;SDS011;60658;52.246;5.258;2022-07-18T16:40:49;2.83;;;1.50;;
72478;SDS011;60658;52.246;5.258;2022-07-18T16:42:11;2.40;;;1.50;;
72478;SDS011;60658;52.246;5.258;2022-07-18T16:43:50;4.00;;;1.80;;
72478;SDS011;60658;52.246;5.258;2022-07-18T16:45:03;6.07;;;1.60;;
72478;SDS011;60658;52.246;5.258;2022-07-18T16:46:46;3.13;;;1.70;;
72478;SDS011;60658;52.246;5.258;2022-07-18T16:48:02;3.55;;;1.67;;
72478;SDS011;60658;52.246;5.258;2022-07-18T16:49:15;2.50;;;1.58;;
72478;SDS011;60658;52.246;5.258;2022-07-18T16:50:17;2.92;;;1.55;;
72478;SDS011;60658;52.246;5.258;2022-07-18T16:51:20;2.75;;;1.67;;
72478;SDS011;60658;52.246;5.258;2022-07-18T16:52:27;3.00;;;1.80;;
72478;SDS011;60658;52.246;5.258;2022-07-18T16:54:40;3.70;;;1.65;;
72478;SDS011;60658;52.246;5.258;2022-07-18T16:55:58;3.25;;;1.60;;
72478;SDS011;60658;52.246;5.258;2022-07-18T16:57:10;3.30;;;1.85;;
72478;SDS011;60658;52.246;5.258;2022-07-18T16:58:13;4.25;;;2.20;;
72478;SDS011;60658;52.246;5.258;2022-07-18T16:59:20;3.80;;;1.58;;
72478;SDS011;60658;52.246;5.258;2022-07-18T17:01:32;3.78;;;1.80;;
72478;SDS011;60658;52.246;5.258;2022-07-18T17:02:38;4.25;;;1.90;;
72478;SDS011;60658;52.246;5.258;2022-07-18T17:03:42;2.35;;;1.50;;
72478;SDS011;60658;52.246;5.258;2022-07-18T17:04:43;4.18;;;1.70;;
72478;SDS011;60658;52.246;5.258;2022-07-18T17:05:47;3.60;;;1.60;;
72478;SDS011;60658;52.246;5.258;2022-07-18T17:06:51;2.60;;;1.67;;
72478;SDS011;60658;52.246;5.258;2022-07-18T17:07:59;3.20;;;1.65;;
72478;SDS011;60658;52.246;5.258;2022-07-18T17:09:03;3.50;;;1.80;;
72478;SDS011;60658;52.246;5.258;2022-07-18T17:11:30;2.45;;;1.50;;
72478;SDS011;60658;52.246;5.258;2022-07-18T17:12:32;2.92;;;1.80;;
72478;SDS011;60658;52.246;5.258;2022-07-18T17:13:37;3.90;;;1.73;;
72478;SDS011;60658;52.246;5.258;2022-07-18T17:14:51;2.95;;;1.80;;
72478;SDS011;60658;52.246;5.258;2022-07-18T17:15:54;2.30;;;1.58;;
72478;SDS011;60658;52.246;5.258;2022-07-18T17:16:58;3.40;;;1.77;;
72478;SDS011;60658;52.246;5.258;2022-07-18T17:18:04;4.10;;;1.80;;
72478;SDS011;60658;52.246;5.258;2022-07-18T17:19:05;3.08;;;1.75;;
72478;SDS011;60658;52.246;5.258;2022-07-18T17:20:25;4.28;;;1.98;;
72478;SDS011;60658;52.246;5.258;2022-07-18T17:21:28;2.30;;;1.70;;
72478;SDS011;60658;52.246;5.258;2022-07-18T17:22:30;5.10;;;2.00;;
72478;SDS011;60658;52.246;5.258;2022-07-18T17:23:31;4.82;;;2.22;;
72478;SDS011;60658;52.246;5.258;2022-07-18T17:24:41;2.75;;;1.73;;
72478;SDS011;60658;52.246;5.258;2022-07-18T17:25:42;3.63;;;1.77;;
72478;SDS011;60658;52.246;5.258;2022-07-18T17:26:48;4.45;;;1.90;;
72478;SDS011;60658;52.246;5.258;2022-07-18T17:27:49;2.92;;;1.90;;
72478;SDS011;60658;52.246;5.258;2022-07-18T17:28:50;4.97;;;1.80;;
72478;SDS011;60658;52.246;5.258;2022-07-18T17:30:02;4.00;;;1.88;;
72478;SDS011;60658;52.246;5.258;2022-07-18T17:31:04;4.15;;;1.77;;
72478;SDS011;60658;52.246;5.258;2022-07-18T17:32:15;4.00;;;1.90;;
72478;SDS011;60658;52.246;5.258;2022-07-18T17:33:32;3.90;;;1.80;;
72478;SDS011;60658;52.246;5.258;2022-07-18T17:34:41;4.13;;;1.92;;
72478;SDS011;60658;52.246;5.258;2022-07-18T17:35:52;3.05;;;1.77;;
72478;SDS011;60658;52.246;5.258;2022-07-18T17:36:59;4.40;;;1.67;;
72478;SDS011;60658;52.246;5.258;2022-07-18T17:38:00;8.48;;;1.80;;
72478;SDS011;60658;52.246;5.258;2022-07-18T17:40:19;6.15;;;1.90;;
72478;SDS011;60658;52.246;5.258;2022-07-18T17:41:29;2.78;;;1.80;;
72478;SDS011;60658;52.246;5.258;2022-07-18T17:42:50;4.22;;;2.00;;
72478;SDS011;60658;52.246;5.258;2022-07-18T17:44:13;10.43;;;2.03;;
72478;SDS011;60658;52.246;5.258;2022-07-18T17:45:23;5.00;;;1.90;;
72478;SDS011;60658;52.246;5.258;2022-07-18T17:48:08;7.40;;;1.95;;
72478;SDS011;60658;52.246;5.258;2022-07-18T17:49:22;4.60;;;1.92;;
72478;SDS011;60658;52.246;5.258;2022-07-18T17:52:17;6.10;;;2.05;;
72478;SDS011;60658;52.246;5.258;2022-07-18T17:53:37;4.63;;;2.13;;
72478;SDS011;60658;52.246;5.258;2022-07-18T17:55:04;5.30;;;2.25;;
72478;SDS011;60658;52.246;5.258;2022-07-18T17:56:11;4.75;;;2.00;;
72478;SDS011;60658;52.246;5.258;2022-07-18T17:57:12;3.10;;;2.00;;
72478;SDS011;60658;52.246;5.258;2022-07-18T17:58:22;5.45;;;2.10;;
72478;SDS011;60658;52.246;5.258;2022-07-18T17:59:25;4.93;;;2.05;;
72478;SDS011;60658;52.246;5.258;2022-07-18T18:00:30;3.63;;;2.00;;
72478;SDS011;60658;52.246;5.258;2022-07-18T18:01:40;5.10;;;2.30;;